Time;durP1;ratioP1;P1;durP2;ratioP2;P2;SDS_P1;SDS_P2;PMS_P1;PMS_P2;Temp;Humidity;BMP_temperature;BMP_pressure;BME280_temperature;BME280_humidity;BME280_pressure;Samples;Min_cycle;Max_cycle;Signal;HPM_P1;HPM_P2
2021/01/27 00:00:51;;;;;;;13.95;6.53;;;;;;;;;;5001362;28;20029;-94
2021/01/27 00:03:22;;;;;;;15.45;6.68;;;;;;;;;;5004207;28;20041;-95
2021/01/27 00:05:49;;;;;;;14.57;6.93;;;;;;;;;;5002018;28;20026;-94
2021/01/27 00:08:16;;;;;;;15.50;6.45;;;;;;;;;;5022633;28;20046;-94
2021/01/27 00:10:43;;;;;;;15.07;7.60;;;;;;;;;;5005894;28;20076;-93
2021/01/27 00:13:14;;;;;;;15.85;7.18;;;;;;;;;;5005677;28;20352;-93
2021/01/27 00:15:41;;;;;;;17.70;7.90;;;;;;;;;;5003644;28;20084;-94
2021/01/27 00:18:09;;;;;;;17.13;6.88;;;;;;;;;;5021271;28;20152;-95
2021/01/27 00:20:36;;;;;;;15.50;7.43;;;;;;;;;;5005399;28;20022;-91
2021/01/27 00:23:02;;;;;;;14.05;7.32;;;;;;;;;;5018971;28;20049;-91
2021/01/27 00:25:31;;;;;;;17.85;6.90;;;;;;;;;;5018634;28;20056;-94
2021/01/27 00:27:58;;;;;;;19.30;7.43;;;;;;;;;;5006297;28;20087;-93
2021/01/27 00:30:28;;;;;;;17.75;7.50;;;;;;;;;;5026129;28;20374;-95
2021/01/27 00:32:55;;;;;;;17.13;7.57;;;;;;;;;;5010823;28;20038;-95
2021/01/27 00:35:27;;;;;;;14.20;7.45;;;;;;;;;;5007438;28;20029;-94
2021/01/27 00:37:55;;;;;;;15.65;6.95;;;;;;;;;;5006237;28;20080;-94
2021/01/27 00:40:23;;;;;;;18.30;7.38;;;;;;;;;;5008198;28;20118;-95
2021/01/27 00:42:49;;;;;;;18.52;7.80;;;;;;;;;;5009012;28;20113;-95
2021/01/27 00:45:16;;;;;;;21.60;8.13;;;;;;;;;;5008785;28;20545;-94
2021/01/27 00:47:42;;;;;;;21.17;8.43;;;;;;;;;;5007691;28;20034;-94
2021/01/27 00:50:09;;;;;;;17.90;7.10;;;;;;;;;;5005824;28;20026;-94
2021/01/27 00:52:35;;;;;;;16.90;7.38;;;;;;;;;;5005223;28;20048;-94
2021/01/27 00:55:02;;;;;;;20.77;7.78;;;;;;;;;;5007197;28;20034;-94
2021/01/27 00:57:28;;;;;;;19.70;7.70;;;;;;;;;;4998440;28;20494;-87
2021/01/27 00:59:54;;;;;;;18.10;7.70;;;;;;;;;;5002180;28;20034;-95
2021/01/27 01:02:21;;;;;;;17.08;7.72;;;;;;;;;;4996555;28;20058;-87
2021/01/27 01:04:47;;;;;;;16.85;7.88;;;;;;;;;;4995761;28;20121;-90
2021/01/27 01:07:13;;;;;;;13.75;6.38;;;;;;;;;;4997309;28;20030;-93
2021/01/27 01:09:39;;;;;;;19.83;8.15;;;;;;;;;;4997979;28;20031;-88
2021/01/27 01:12:06;;;;;;;16.70;6.82;;;;;;;;;;4995585;28;20042;-88
2021/01/27 01:14:32;;;;;;;16.98;6.88;;;;;;;;;;4997654;28;20026;-88
2021/01/27 01:16:58;;;;;;;16.83;7.22;;;;;;;;;;4997064;28;20033;-88
2021/01/27 01:19:25;;;;;;;16.02;7.25;;;;;;;;;;4997417;28;20023;-88
2021/01/27 01:21:51;;;;;;;18.23;7.55;;;;;;;;;;4997146;28;20100;-88
2021/01/27 01:24:17;;;;;;;16.42;7.50;;;;;;;;;;4997077;28;20487;-85
2021/01/27 01:26:44;;;;;;;15.85;7.40;;;;;;;;;;4995955;28;20026;-88
2021/01/27 01:29:10;;;;;;;15.48;6.68;;;;;;;;;;4995309;28;20475;-88
2021/01/27 01:31:36;;;;;;;17.05;6.45;;;;;;;;;;4996630;28;20121;-85
2021/01/27 01:34:02;;;;;;;16.02;7.07;;;;;;;;;;4995327;28;20027;-85
2021/01/27 01:36:28;;;;;;;17.95;6.20;;;;;;;;;;4995206;28;20034;-85
2021/01/27 01:38:55;;;;;;;14.65;6.03;;;;;;;;;;4995184;28;20045;-88
2021/01/27 01:41:21;;;;;;;17.05;6.40;;;;;;;;;;4995157;28;20435;-88
2021/01/27 01:43:47;;;;;;;14.60;6.15;;;;;;;;;;4997442;28;20030;-87
2021/01/27 01:46:15;;;;;;;16.33;7.13;;;;;;;;;;4996354;28;20093;-87
2021/01/27 01:48:48;;;;;;;12.70;6.80;;;;;;;;;;4995002;28;20683;-87
2021/01/27 01:51:29;;;;;;;15.90;6.53;;;;;;;;;;4997040;28;20006;-87
2021/01/27 01:53:56;;;;;;;13.05;5.38;;;;;;;;;;4995222;28;20403;-87
2021/01/27 01:56:25;;;;;;;12.63;5.43;;;;;;;;;;4995119;28;20129;-86
2021/01/27 01:58:53;;;;;;;15.32;6.10;;;;;;;;;;4998007;28;20054;-96
2021/01/27 02:01:21;;;;;;;16.35;7.28;;;;;;;;;;5001143;28;20026;-95
2021/01/27 02:03:48;;;;;;;17.05;6.70;;;;;;;;;;4997983;28;20030;-95
2021/01/27 02:06:15;;;;;;;14.23;6.13;;;;;;;;;;4999281;28;20356;-88
2021/01/27 02:08:45;;;;;;;15.90;7.57;;;;;;;;;;4996871;28;20034;-84
2021/01/27 02:11:12;;;;;;;13.05;5.85;;;;;;;;;;4998506;28;20327;-96
2021/01/27 02:13:44;;;;;;;15.02;6.28;;;;;;;;;;4998334;28;20030;-96
2021/01/27 02:16:31;;;;;;;15.38;5.88;;;;;;;;;;4994982;28;20031;-88
2021/01/27 02:19:07;;;;;;;15.15;5.80;;;;;;;;;;4995098;28;20034;-88
2021/01/27 02:21:51;;;;;;;13.73;6.07;;;;;;;;;;4994185;28;20077;-89
2021/01/27 02:24:36;;;;;;;14.45;6.38;;;;;;;;;;4995211;28;20026;-93
2021/01/27 02:27:05;;;;;;;14.27;5.93;;;;;;;;;;5000276;28;20459;-94
2021/01/27 02:29:43;;;;;;;16.55;6.88;;;;;;;;;;4996297;28;20030;-95
2021/01/27 02:32:12;;;;;;;16.05;6.75;;;;;;;;;;4995120;28;20034;-95
2021/01/27 02:34:51;;;;;;;17.13;7.22;;;;;;;;;;4996884;28;20022;-92
2021/01/27 02:37:19;;;;;;;15.63;6.32;;;;;;;;;;4994980;28;20033;-91
2021/01/27 02:39:49;;;;;;;14.70;5.57;;;;;;;;;;4997548;28;20034;-93
2021/01/27 02:42:30;;;;;;;16.15;6.85;;;;;;;;;;4994832;28;20026;-87
2021/01/27 02:44:58;;;;;;;16.15;6.03;;;;;;;;;;4995250;28;20027;-93
2021/01/27 02:47:28;;;;;;;13.35;5.93;;;;;;;;;;4994594;28;20027;-94
2021/01/27 02:50:01;;;;;;;14.85;5.65;;;;;;;;;;4996713;28;20081;-94
2021/01/27 02:52:31;;;;;;;10.70;4.85;;;;;;;;;;4994097;28;20042;-95
2021/01/27 02:55:08;;;;;;;15.15;6.25;;;;;;;;;;4996673;28;20395;-83
2021/01/27 02:57:36;;;;;;;14.27;6.03;;;;;;;;;;4994299;28;20096;-82
2021/01/27 03:00:14;;;;;;;12.13;5.35;;;;;;;;;;4993752;28;20376;-85
2021/01/27 03:02:44;;;;;;;14.63;6.15;;;;;;;;;;4996100;28;20054;-94
2021/01/27 03:05:13;;;;;;;12.80;4.82;;;;;;;;;;4996014;28;20019;-93
2021/01/27 03:07:40;;;;;;;11.20;4.40;;;;;;;;;;4994495;28;20034;-83
2021/01/27 03:10:12;;;;;;;10.60;4.50;;;;;;;;;;4999965;28;20031;-93
2021/01/27 03:12:38;;;;;;;8.80;4.75;;;;;;;;;;4998701;28;20030;-95
2021/01/27 03:15:07;;;;;;;11.18;4.07;;;;;;;;;;5003421;28;20026;-92
2021/01/27 03:17:33;;;;;;;10.10;4.28;;;;;;;;;;4996634;28;20026;-94
2021/01/27 03:20:18;;;;;;;12.85;4.93;;;;;;;;;;4995748;28;20030;-93
2021/01/27 03:22:46;;;;;;;9.27;4.03;;;;;;;;;;4996155;28;20034;-95
2021/01/27 03:25:16;;;;;;;11.15;3.60;;;;;;;;;;4994776;28;20058;-94
2021/01/27 03:27:51;;;;;;;14.93;4.15;;;;;;;;;;4996211;28;20092;-95
2021/01/27 03:30:18;;;;;;;12.02;4.13;;;;;;;;;;4996661;28;20018;-89
2021/01/27 03:32:52;;;;;;;6.50;3.25;;;;;;;;;;4994278;28;20125;-94
2021/01/27 03:35:30;;;;;;;7.80;3.67;;;;;;;;;;4997275;28;20364;-95
2021/01/27 03:38:13;;;;;;;8.50;3.47;;;;;;;;;;4997365;28;20030;-95
2021/01/27 03:40:43;;;;;;;7.82;3.35;;;;;;;;;;4999578;28;20030;-95
2021/01/27 03:43:29;;;;;;;9.23;3.58;;;;;;;;;;5001603;28;20102;-92
2021/01/27 03:46:01;;;;;;;11.40;4.78;;;;;;;;;;5015370;28;20053;-96
2021/01/27 03:48:34;;;;;;;7.05;3.67;;;;;;;;;;4998210;28;20064;-94
2021/01/27 03:51:01;;;;;;;8.13;3.33;;;;;;;;;;4996168;28;20014;-95
2021/01/27 03:53:28;;;;;;;9.13;2.92;;;;;;;;;;4997076;28;20100;-93
2021/01/27 03:56:01;;;;;;;10.50;3.72;;;;;;;;;;4993290;28;20504;-88
2021/01/27 03:58:31;;;;;;;5.22;2.70;;;;;;;;;;4995943;28;20054;-95
2021/01/27 04:01:01;;;;;;;10.05;3.70;;;;;;;;;;4995218;28;20041;-95
2021/01/27 04:03:27;;;;;;;7.03;2.75;;;;;;;;;;4996955;28;20033;-95
2021/01/27 04:05:54;;;;;;;16.00;4.18;;;;;;;;;;4977949;28;20034;-94
2021/01/27 04:08:20;;;;;;;6.97;3.05;;;;;;;;;;4993880;28;20023;-96
2021/01/27 04:10:46;;;;;;;5.85;2.58;;;;;;;;;;4999846;28;20078;-94
2021/01/27 04:13:12;;;;;;;8.20;3.70;;;;;;;;;;4992846;28;20398;-89
2021/01/27 04:15:39;;;;;;;6.88;2.78;;;;;;;;;;4994070;28;20024;-88
2021/01/27 04:18:05;;;;;;;8.13;3.20;;;;;;;;;;4995175;28;20030;-87
2021/01/27 04:20:32;;;;;;;10.13;3.30;;;;;;;;;;4994589;28;20022;-94
2021/01/27 04:22:58;;;;;;;6.97;3.03;;;;;;;;;;5002414;28;20010;-92
2021/01/27 04:25:24;;;;;;;5.57;2.58;;;;;;;;;;5003755;28;20035;-92
2021/01/27 04:27:51;;;;;;;8.48;3.08;;;;;;;;;;4997202;28;20498;-95
2021/01/27 04:30:19;;;;;;;9.65;3.88;;;;;;;;;;4998798;28;20022;-83
2021/01/27 04:32:45;;;;;;;7.82;3.13;;;;;;;;;;4995305;28;20038;-86
2021/01/27 04:35:11;;;;;;;7.50;2.80;;;;;;;;;;4995859;28;20073;-95
2021/01/27 04:37:38;;;;;;;8.85;3.28;;;;;;;;;;4992803;28;20073;-83
2021/01/27 04:40:05;;;;;;;7.10;3.20;;;;;;;;;;4993554;28;20106;-95
2021/01/27 04:42:32;;;;;;;6.72;3.05;;;;;;;;;;4995613;28;20057;-94
2021/01/27 04:44:59;;;;;;;7.68;2.88;;;;;;;;;;4993983;28;20113;-95
2021/01/27 04:47:28;;;;;;;6.80;2.88;;;;;;;;;;4993861;28;20534;-93
2021/01/27 04:49:57;;;;;;;5.95;2.70;;;;;;;;;;4993330;28;20026;-85
2021/01/27 04:52:23;;;;;;;6.10;2.45;;;;;;;;;;4992644;28;20042;-94
2021/01/27 04:54:59;;;;;;;7.93;3.17;;;;;;;;;;4999076;28;20034;-94
2021/01/27 04:57:40;;;;;;;7.10;3.03;;;;;;;;;;4995404;28;20144;-94
2021/01/27 05:00:18;;;;;;;10.68;2.72;;;;;;;;;;4995216;28;20078;-93
2021/01/27 05:02:51;;;;;;;8.30;2.53;;;;;;;;;;4993638;28;20026;-92
2021/01/27 05:05:25;;;;;;;8.90;3.20;;;;;;;;;;4994122;28;20035;-93
2021/01/27 05:07:51;;;;;;;7.05;3.03;;;;;;;;;;4993905;28;20464;-95
2021/01/27 05:10:21;;;;;;;7.20;2.85;;;;;;;;;;4994028;28;20041;-94
2021/01/27 05:12:50;;;;;;;6.82;2.70;;;;;;;;;;4996000;28;20476;-93
2021/01/27 05:15:17;;;;;;;6.07;2.58;;;;;;;;;;4994725;28;20018;-95
2021/01/27 05:17:44;;;;;;;5.97;2.35;;;;;;;;;;4997380;28;20034;-87
2021/01/27 05:20:14;;;;;;;6.65;2.40;;;;;;;;;;4996724;28;20022;-87
2021/01/27 05:22:40;;;;;;;5.28;2.25;;;;;;;;;;4998842;28;20014;-86
2021/01/27 05:25:09;;;;;;;7.15;2.17;;;;;;;;;;4997731;28;20093;-94
2021/01/27 05:27:37;;;;;;;4.72;2.00;;;;;;;;;;4997805;28;20031;-93
2021/01/27 05:30:23;;;;;;;8.68;2.35;;;;;;;;;;4998784;28;20054;-93
2021/01/27 05:32:51;;;;;;;5.32;2.17;;;;;;;;;;5008874;28;20068;-91
2021/01/27 05:35:22;;;;;;;4.85;1.73;;;;;;;;;;5007452;28;20030;-86
2021/01/27 05:37:50;;;;;;;6.15;2.45;;;;;;;;;;4995315;28;20038;-87
2021/01/27 05:40:21;;;;;;;6.10;2.35;;;;;;;;;;4996702;28;20467;-93
2021/01/27 05:42:47;;;;;;;4.65;1.95;;;;;;;;;;4996760;28;20030;-93
2021/01/27 05:45:26;;;;;;;6.68;2.83;;;;;;;;;;4998316;28;20037;-93
2021/01/27 05:47:53;;;;;;;3.78;1.90;;;;;;;;;;4996577;28;20030;-93
2021/01/27 05:50:30;;;;;;;6.65;2.63;;;;;;;;;;4996281;28;20046;-93
2021/01/27 05:53:17;;;;;;;5.28;1.95;;;;;;;;;;4998674;28;20038;-93
2021/01/27 05:56:00;;;;;;;4.70;1.60;;;;;;;;;;4996250;28;20034;-87
2021/01/27 05:58:27;;;;;;;6.30;2.17;;;;;;;;;;5002578;28;20139;-92
2021/01/27 06:01:12;;;;;;;3.50;1.77;;;;;;;;;;5001440;28;20039;-88
2021/01/27 06:03:38;;;;;;;5.38;2.42;;;;;;;;;;4997869;28;20018;-91
2021/01/27 06:06:11;;;;;;;4.03;1.42;;;;;;;;;;4999393;28;20062;-90
2021/01/27 06:08:47;;;;;;;8.07;2.47;;;;;;;;;;5003435;28;20113;-92
2021/01/27 06:11:13;;;;;;;6.22;2.60;;;;;;;;;;4998651;28;20459;-93
2021/01/27 06:13:39;;;;;;;4.85;2.00;;;;;;;;;;4996758;28;20030;-93
2021/01/27 06:16:16;;;;;;;5.40;1.85;;;;;;;;;;4994982;28;20478;-87
2021/01/27 06:18:42;;;;;;;5.10;1.83;;;;;;;;;;4995357;28;20490;-87
2021/01/27 06:21:14;;;;;;;3.38;1.75;;;;;;;;;;4995076;28;20039;-88
2021/01/27 06:23:40;;;;;;;2.78;1.45;;;;;;;;;;4996830;28;20034;-87
2021/01/27 06:26:18;;;;;;;3.42;1.35;;;;;;;;;;4995312;28;20543;-87
2021/01/27 06:28:44;;;;;;;3.83;2.15;;;;;;;;;;4995030;28;20026;-89
2021/01/27 06:31:28;;;;;;;4.50;1.52;;;;;;;;;;4995762;28;20467;-94
2021/01/27 06:33:55;;;;;;;8.88;1.92;;;;;;;;;;4995793;28;20043;-93
2021/01/27 06:36:29;;;;;;;4.18;1.90;;;;;;;;;;4995855;28;20045;-93
2021/01/27 06:39:02;;;;;;;5.10;2.38;;;;;;;;;;4995013;28;20092;-90
2021/01/27 06:41:45;;;;;;;6.10;2.35;;;;;;;;;;4995266;28;20033;-90
2021/01/27 06:44:24;;;;;;;5.82;2.25;;;;;;;;;;4999116;28;20018;-88
2021/01/27 06:46:57;;;;;;;4.53;2.03;;;;;;;;;;4999931;28;20039;-89
2021/01/27 06:49:26;;;;;;;4.15;1.60;;;;;;;;;;4999201;28;20034;-88
2021/01/27 06:52:11;;;;;;;5.55;2.25;;;;;;;;;;5002297;28;20121;-94
2021/01/27 06:54:37;;;;;;;9.27;2.05;;;;;;;;;;4995898;28;20031;-85
2021/01/27 06:57:15;;;;;;;3.58;1.70;;;;;;;;;;4994568;28;20042;-84
2021/01/27 07:00:00;;;;;;;6.00;3.55;;;;;;;;;;4979811;28;20411;-86
2021/01/27 07:02:29;;;;;;;4.82;2.08;;;;;;;;;;4978137;28;20365;-85
2021/01/27 07:05:17;;;;;;;3.45;1.63;;;;;;;;;;5010725;28;20018;-85
2021/01/27 07:07:43;;;;;;;3.85;1.60;;;;;;;;;;5012977;28;20026;-85
2021/01/27 07:10:25;;;;;;;4.38;1.75;;;;;;;;;;5012887;28;20041;-85
2021/01/27 07:12:56;;;;;;;5.32;1.88;;;;;;;;;;5020206;28;20038;-92
2021/01/27 07:15:31;;;;;;;4.75;2.33;;;;;;;;;;5019541;28;20057;-93
2021/01/27 07:18:00;;;;;;;7.35;1.92;;;;;;;;;;5019656;28;20100;-92
2021/01/27 07:20:31;;;;;;;2.58;1.10;;;;;;;;;;5014398;28;20112;-87
2021/01/27 07:23:00;;;;;;;4.25;1.38;;;;;;;;;;5014415;28;20392;-86
2021/01/27 07:25:29;;;;;;;6.82;1.60;;;;;;;;;;5016760;28;20030;-91
2021/01/27 07:28:19;;;;;;;5.15;1.77;;;;;;;;;;5016002;28;20396;-86
2021/01/27 07:31:05;;;;;;;9.15;2.95;;;;;;;;;;4977617;28;20038;-86
2021/01/27 07:33:51;;;;;;;5.75;2.80;;;;;;;;;;5012519;28;20041;-86
2021/01/27 07:36:32;;;;;;;5.78;2.05;;;;;;;;;;5011082;28;20022;-86
2021/01/27 07:39:01;;;;;;;5.75;1.83;;;;;;;;;;5013110;28;20033;-89
2021/01/27 07:41:29;;;;;;;6.88;2.40;;;;;;;;;;5013158;28;20034;-88
2021/01/27 07:44:00;;;;;;;6.78;2.05;;;;;;;;;;5014875;28;20022;-94
2021/01/27 07:46:33;;;;;;;5.40;2.40;;;;;;;;;;5019248;28;20030;-86
2021/01/27 07:49:04;;;;;;;5.65;1.85;;;;;;;;;;5015285;28;20030;-88
2021/01/27 07:51:32;;;;;;;5.03;1.70;;;;;;;;;;5015536;28;20026;-88
2021/01/27 07:53:59;;;;;;;4.75;2.45;;;;;;;;;;5014893;28;20099;-88
2021/01/27 07:56:30;;;;;;;4.20;1.63;;;;;;;;;;5013835;28;20029;-87
2021/01/27 07:59:04;;;;;;;6.30;1.87;;;;;;;;;;5032825;28;20128;-90
2021/01/27 08:01:40;;;;;;;7.07;3.07;;;;;;;;;;5036357;28;20083;-92
2021/01/27 08:04:09;;;;;;;6.40;2.50;;;;;;;;;;5017028;28;20115;-84
2021/01/27 08:06:46;;;;;;;5.22;1.77;;;;;;;;;;5017487;28;20163;-93
2021/01/27 08:09:13;;;;;;;4.55;1.75;;;;;;;;;;5015517;28;20398;-85
2021/01/27 08:11:43;;;;;;;6.30;2.25;;;;;;;;;;5036229;28;20025;-84
2021/01/27 08:14:12;;;;;;;4.65;1.55;;;;;;;;;;5017379;28;20038;-84
2021/01/27 08:16:47;;;;;;;4.47;1.70;;;;;;;;;;5017417;28;20022;-93
2021/01/27 08:19:13;;;;;;;3.35;1.77;;;;;;;;;;5017233;28;20120;-83
2021/01/27 08:21:46;;;;;;;4.40;1.90;;;;;;;;;;5019799;28;20028;-92
2021/01/27 08:24:31;;;;;;;5.30;2.30;;;;;;;;;;5020033;28;20037;-92
2021/01/27 08:26:57;;;;;;;3.10;1.40;;;;;;;;;;5018161;28;20526;-94
2021/01/27 08:29:28;;;;;;;3.90;1.55;;;;;;;;;;5021123;28;20482;-93
2021/01/27 08:32:13;;;;;;;4.25;1.85;;;;;;;;;;4999280;28;20030;-94
2021/01/27 08:34:43;;;;;;;4.10;1.48;;;;;;;;;;4993061;28;20109;-92
2021/01/27 08:37:09;;;;;;;3.20;1.50;;;;;;;;;;5001403;28;20030;-91
2021/01/27 08:39:35;;;;;;;3.92;1.83;;;;;;;;;;5001167;28;20133;-85
2021/01/27 08:42:03;;;;;;;3.90;1.48;;;;;;;;;;5015722;28;20022;-84
2021/01/27 08:44:33;;;;;;;3.67;1.50;;;;;;;;;;4999428;28;20034;-90
2021/01/27 08:47:08;;;;;;;3.58;1.33;;;;;;;;;;5022979;28;20098;-82
2021/01/27 08:49:37;;;;;;;4.70;1.50;;;;;;;;;;5012641;28;20026;-83
2021/01/27 08:52:10;;;;;;;3.42;1.70;;;;;;;;;;4998265;28;20402;-83
2021/01/27 08:54:36;;;;;;;3.65;1.73;;;;;;;;;;5000771;28;20026;-84
2021/01/27 08:57:17;;;;;;;3.92;1.58;;;;;;;;;;4999521;28;20065;-82
2021/01/27 08:59:53;;;;;;;3.28;1.45;;;;;;;;;;5023184;28;20061;-83
2021/01/27 09:02:38;;;;;;;2.80;1.38;;;;;;;;;;5021801;28;20025;-83
2021/01/27 09:05:20;;;;;;;2.90;1.58;;;;;;;;;;4999800;28;20095;-91
2021/01/27 09:08:24;;;;;;;5.80;1.92;;;;;;;;;;5015148;28;20034;-88
2021/01/27 09:10:55;;;;;;;4.47;1.40;;;;;;;;;;5005879;28;20030;-84
2021/01/27 09:13:30;;;;;;;3.33;1.50;;;;;;;;;;4999609;28;20042;-84
2021/01/27 09:16:12;;;;;;;3.42;1.67;;;;;;;;;;5017165;28;20030;-88
2021/01/27 09:18:39;;;;;;;2.65;1.42;;;;;;;;;;5001728;28;20029;-90
2021/01/27 09:21:15;;;;;;;2.83;1.50;;;;;;;;;;5030221;28;20102;-90
2021/01/27 09:23:42;;;;;;;4.97;1.48;;;;;;;;;;5005095;28;20414;-88
2021/01/27 09:26:19;;;;;;;3.35;1.60;;;;;;;;;;5004133;28;20053;-91
2021/01/27 09:28:46;;;;;;;4.10;1.58;;;;;;;;;;5000696;28;20098;-92
2021/01/27 09:31:20;;;;;;;5.03;2.00;;;;;;;;;;4998434;28;20121;-85
2021/01/27 09:33:46;;;;;;;4.68;1.98;;;;;;;;;;5001158;28;20041;-87
2021/01/27 09:36:26;;;;;;;3.63;1.90;;;;;;;;;;4999941;28;20030;-92
2021/01/27 09:38:57;;;;;;;4.85;2.38;;;;;;;;;;4998901;28;20038;-85
2021/01/27 09:41:25;;;;;;;7.88;2.97;;;;;;;;;;4998590;28;20508;-92
2021/01/27 09:43:51;;;;;;;5.95;2.90;;;;;;;;;;5000358;28;20022;-84
2021/01/27 09:46:22;;;;;;;7.30;2.50;;;;;;;;;;4998335;28;20034;-92
2021/01/27 09:48:50;;;;;;;3.50;1.90;;;;;;;;;;4998623;28;20661;-89
2021/01/27 09:51:16;;;;;;;5.75;2.60;;;;;;;;;;4998773;28;20032;-82
2021/01/27 09:53:44;;;;;;;5.90;2.13;;;;;;;;;;5018786;28;20030;-89
2021/01/27 09:56:14;;;;;;;3.97;1.75;;;;;;;;;;4998209;28;20022;-84
2021/01/27 09:58:41;;;;;;;5.13;2.10;;;;;;;;;;4998806;28;20053;-82
2021/01/27 10:01:09;;;;;;;4.00;1.40;;;;;;;;;;4994513;28;20021;-86
2021/01/27 10:03:38;;;;;;;3.72;1.70;;;;;;;;;;4999344;28;20103;-86
2021/01/27 10:06:08;;;;;;;4.28;1.55;;;;;;;;;;4997713;28;20498;-89
2021/01/27 10:08:36;;;;;;;2.72;1.38;;;;;;;;;;4997923;28;20033;-85
2021/01/27 10:11:02;;;;;;;3.38;1.60;;;;;;;;;;4998630;28;20079;-84
2021/01/27 10:13:32;;;;;;;4.93;1.67;;;;;;;;;;4997946;28;20478;-84
2021/01/27 10:16:24;;;;;;;3.97;1.65;;;;;;;;;;5015183;28;20028;-85
2021/01/27 10:18:59;;;;;;;5.90;1.70;;;;;;;;;;4994053;28;20045;-84
2021/01/27 10:21:26;;;;;;;4.10;1.67;;;;;;;;;;4997453;28;20471;-84
2021/01/27 10:23:52;;;;;;;4.85;1.77;;;;;;;;;;4997735;28;20028;-83
2021/01/27 10:26:30;;;;;;;3.35;1.50;;;;;;;;;;4999204;28;20045;-83
2021/01/27 10:29:15;;;;;;;5.50;1.73;;;;;;;;;;4997393;28;20022;-84
2021/01/27 10:31:41;;;;;;;4.07;1.73;;;;;;;;;;4997091;28;20038;-84
2021/01/27 10:34:07;;;;;;;3.88;1.77;;;;;;;;;;4997495;28;20022;-84
2021/01/27 10:36:39;;;;;;;5.47;1.27;;;;;;;;;;4997770;28;20037;-84
2021/01/27 10:39:19;;;;;;;5.25;2.20;;;;;;;;;;4997515;28;20052;-86
2021/01/27 10:42:15;;;;;;;6.85;2.25;;;;;;;;;;4997533;28;20113;-85
2021/01/27 10:44:42;;;;;;;5.90;1.70;;;;;;;;;;4980840;28;20494;-85
2021/01/27 10:47:08;;;;;;;5.25;2.33;;;;;;;;;;4997123;28;20025;-87
2021/01/27 10:49:40;;;;;;;4.82;1.75;;;;;;;;;;4997316;28;20088;-85
2021/01/27 10:52:08;;;;;;;4.93;1.90;;;;;;;;;;5002491;28;20120;-85
2021/01/27 10:54:37;;;;;;;29.85;3.28;;;;;;;;;;5016288;28;20436;-86
2021/01/27 10:57:03;;;;;;;3.28;1.42;;;;;;;;;;5016431;28;20032;-84
2021/01/27 10:59:29;;;;;;;7.45;2.13;;;;;;;;;;5016287;28;20069;-85
2021/01/27 11:01:55;;;;;;;5.88;2.83;;;;;;;;;;5034106;28;20079;-84
2021/01/27 11:04:22;;;;;;;3.67;1.55;;;;;;;;;;5016406;28;20021;-84
2021/01/27 11:06:48;;;;;;;9.70;1.88;;;;;;;;;;5016288;28;20029;-84
2021/01/27 11:09:14;;;;;;;5.72;2.03;;;;;;;;;;5016575;28;20018;-83
2021/01/27 11:11:40;;;;;;;4.18;2.05;;;;;;;;;;5016183;28;20389;-83
2021/01/27 11:14:07;;;;;;;5.50;1.67;;;;;;;;;;5015303;28;20048;-84
2021/01/27 11:16:33;;;;;;;2.67;1.42;;;;;;;;;;5034312;28;20091;-84
2021/01/27 11:18:59;;;;;;;5.00;2.22;;;;;;;;;;5016221;28;20034;-84
2021/01/27 11:21:25;;;;;;;4.60;1.90;;;;;;;;;;5015994;28;20389;-83
2021/01/27 11:23:52;;;;;;;4.05;1.75;;;;;;;;;;5015527;28;20121;-83
2021/01/27 11:26:21;;;;;;;3.45;1.92;;;;;;;;;;5015947;28;20060;-86
2021/01/27 11:28:48;;;;;;;4.38;1.80;;;;;;;;;;5015895;28;20112;-83
2021/01/27 11:31:15;;;;;;;4.70;1.83;;;;;;;;;;5015809;28;20033;-84
2021/01/27 11:33:41;;;;;;;5.78;1.40;;;;;;;;;;5016035;28;20433;-85
2021/01/27 11:36:08;;;;;;;3.20;1.60;;;;;;;;;;5015734;28;20480;-82
2021/01/27 11:38:34;;;;;;;3.75;1.88;;;;;;;;;;5015386;28;20100;-83
2021/01/27 11:41:00;;;;;;;3.78;1.38;;;;;;;;;;5015569;28;20030;-83
2021/01/27 11:43:26;;;;;;;3.55;1.50;;;;;;;;;;5015575;28;20041;-82
2021/01/27 11:45:52;;;;;;;3.33;1.33;;;;;;;;;;5015521;28;20029;-82
2021/01/27 11:48:18;;;;;;;2.67;1.25;;;;;;;;;;5015512;28;20030;-83
2021/01/27 11:50:44;;;;;;;4.20;1.60;;;;;;;;;;5015383;28;20048;-83
2021/01/27 11:53:11;;;;;;;3.70;1.60;;;;;;;;;;5001192;28;20033;-83
2021/01/27 11:55:37;;;;;;;3.50;1.60;;;;;;;;;;4996050;28;20037;-82
2021/01/27 11:58:03;;;;;;;4.10;1.67;;;;;;;;;;5012500;28;20046;-82
2021/01/27 12:00:30;;;;;;;2.63;1.27;;;;;;;;;;4994580;28;20104;-82
2021/01/27 12:02:57;;;;;;;4.40;1.65;;;;;;;;;;4995899;28;20033;-82
2021/01/27 12:05:23;;;;;;;4.90;1.23;;;;;;;;;;5013649;28;20386;-83
2021/01/27 12:07:49;;;;;;;4.45;1.20;;;;;;;;;;4995742;28;20034;-85
2021/01/27 12:10:16;;;;;;;2.40;1.17;;;;;;;;;;4993751;28;20533;-82
2021/01/27 12:12:42;;;;;;;4.25;1.67;;;;;;;;;;4981591;28;20065;-83
2021/01/27 12:15:09;;;;;;;6.18;1.88;;;;;;;;;;4975503;28;20026;-82
2021/01/27 12:17:35;;;;;;;2.63;1.30;;;;;;;;;;4975756;28;20117;-84
2021/01/27 12:20:01;;;;;;;4.75;1.88;;;;;;;;;;4977391;28;20080;-83
2021/01/27 12:22:27;;;;;;;2.38;0.80;;;;;;;;;;4993881;28;20026;-84
2021/01/27 12:28:01;;;;;;;3.75;1.42;;;;;;;;;;4989648;28;20033;-82
2021/01/27 12:30:27;;;;;;;2.92;1.23;;;;;;;;;;5016994;28;20034;-82
2021/01/27 12:32:54;;;;;;;4.57;1.30;;;;;;;;;;4999274;28;20092;-83
2021/01/27 12:35:21;;;;;;;4.95;1.70;;;;;;;;;;5017093;28;20033;-83
2021/01/27 12:37:47;;;;;;;2.78;1.38;;;;;;;;;;4999525;28;20044;-83
2021/01/27 12:40:14;;;;;;;4.13;1.70;;;;;;;;;;5017240;28;20026;-85
2021/01/27 12:42:40;;;;;;;2.75;1.30;;;;;;;;;;4999713;28;20034;-84
2021/01/27 12:45:10;;;;;;;5.20;1.83;;;;;;;;;;5017679;28;20017;-83
2021/01/27 12:47:37;;;;;;;5.70;1.60;;;;;;;;;;5016641;28;20022;-83
2021/01/27 12:50:04;;;;;;;3.78;1.70;;;;;;;;;;4999129;28;20448;-82
2021/01/27 12:52:30;;;;;;;6.00;1.75;;;;;;;;;;4999110;28;20037;-83
2021/01/27 12:54:56;;;;;;;4.15;1.30;;;;;;;;;;5016652;28;20030;-83
2021/01/27 12:57:22;;;;;;;3.88;1.77;;;;;;;;;;4999128;28;20026;-83
2021/01/27 12:59:48;;;;;;;4.55;1.55;;;;;;;;;;4995626;28;20057;-83
2021/01/27 13:02:14;;;;;;;7.15;2.13;;;;;;;;;;4995638;28;20363;-84
2021/01/27 13:04:40;;;;;;;3.97;1.15;;;;;;;;;;5003377;28;20025;-84
2021/01/27 13:07:06;;;;;;;7.05;2.60;;;;;;;;;;5016018;28;20080;-83
2021/01/27 13:09:33;;;;;;;6.57;2.17;;;;;;;;;;5015401;28;20128;-84
2021/01/27 13:14:35;;;;;;;9.70;2.80;;;;;;;;;;5131900;23;20054;-83
2021/01/27 13:17:01;;;;;;;4.05;1.73;;;;;;;;;;4975843;28;20030;-83
2021/01/27 13:19:27;;;;;;;5.85;2.22;;;;;;;;;;4976239;28;20499;-83
2021/01/27 13:21:54;;;;;;;3.80;2.00;;;;;;;;;;4975617;28;20053;-83
2021/01/27 13:24:20;;;;;;;5.40;1.95;;;;;;;;;;4976914;28;20034;-83
2021/01/27 13:26:46;;;;;;;5.18;1.92;;;;;;;;;;4981168;28;20485;-83
2021/01/27 13:29:12;;;;;;;4.55;1.40;;;;;;;;;;4975725;28;20033;-83
2021/01/27 13:31:38;;;;;;;5.15;1.80;;;;;;;;;;4975538;28;20479;-83
2021/01/27 13:34:04;;;;;;;4.45;1.45;;;;;;;;;;4975588;28;20141;-83
2021/01/27 13:36:32;;;;;;;4.65;1.67;;;;;;;;;;4974863;28;20424;-83
2021/01/27 13:38:58;;;;;;;4.25;1.50;;;;;;;;;;4976894;28;20463;-84
2021/01/27 13:41:24;;;;;;;4.47;1.70;;;;;;;;;;4976387;28;20030;-83
2021/01/27 13:43:50;;;;;;;3.45;1.42;;;;;;;;;;4975456;28;20026;-84
2021/01/27 13:49:06;;;;;;;3.05;1.20;;;;;;;;;;4972670;28;20038;-84
2021/01/27 13:51:33;;;;;;;2.85;1.23;;;;;;;;;;4976518;28;20038;-83
2021/01/27 13:53:59;;;;;;;3.25;1.38;;;;;;;;;;4978673;28;20054;-84
2021/01/27 13:56:25;;;;;;;6.78;2.03;;;;;;;;;;4975263;28;20023;-83
2021/01/27 13:58:51;;;;;;;3.70;1.50;;;;;;;;;;4976482;28;20062;-83
2021/01/27 14:01:17;;;;;;;4.25;1.92;;;;;;;;;;4975051;28;20368;-83
2021/01/27 14:03:44;;;;;;;5.35;2.22;;;;;;;;;;4976338;28;20035;-84
2021/01/27 14:06:10;;;;;;;6.32;2.05;;;;;;;;;;4977396;28;20031;-84
2021/01/27 14:08:36;;;;;;;5.50;1.80;;;;;;;;;;4976616;28;20380;-83
2021/01/27 14:11:03;;;;;;;4.75;2.03;;;;;;;;;;4974910;28;20027;-84
2021/01/27 14:13:29;;;;;;;5.13;2.42;;;;;;;;;;4973598;28;20054;-84
2021/01/27 14:15:55;;;;;;;7.40;1.92;;;;;;;;;;4974675;28;20022;-87
2021/01/27 14:18:22;;;;;;;4.40;2.17;;;;;;;;;;4975630;28;20077;-88
2021/01/27 14:20:48;;;;;;;5.00;2.25;;;;;;;;;;4988351;28;20089;-90
2021/01/27 14:23:14;;;;;;;2.85;1.55;;;;;;;;;;4986247;28;20035;-86
2021/01/27 14:25:40;;;;;;;4.60;2.03;;;;;;;;;;4974776;28;20027;-87
2021/01/27 14:28:07;;;;;;;4.97;2.47;;;;;;;;;;4974661;28;20081;-84
2021/01/27 14:30:35;;;;;;;9.35;2.42;;;;;;;;;;4975806;28;20097;-86
2021/01/27 14:33:01;;;;;;;4.15;2.25;;;;;;;;;;4974457;28;20042;-82
2021/01/27 14:35:27;;;;;;;7.63;2.70;;;;;;;;;;4974613;28;20121;-80
2021/01/27 14:37:54;;;;;;;6.55;2.42;;;;;;;;;;4974627;28;20030;-82
2021/01/27 14:40:21;;;;;;;6.00;2.25;;;;;;;;;;4975551;28;20049;-86
2021/01/27 14:42:47;;;;;;;3.95;1.73;;;;;;;;;;4974834;28;20034;-84
2021/01/27 14:45:14;;;;;;;4.45;2.03;;;;;;;;;;4975050;28;20027;-83
2021/01/27 14:47:41;;;;;;;8.98;2.53;;;;;;;;;;4975958;28;20113;-83
2021/01/27 14:50:07;;;;;;;7.35;2.97;;;;;;;;;;4975721;28;20034;-83
2021/01/27 14:52:34;;;;;;;7.10;2.92;;;;;;;;;;4976142;28;20504;-83
2021/01/27 14:55:00;;;;;;;5.72;2.45;;;;;;;;;;4976217;28;20487;-85
2021/01/27 14:57:27;;;;;;;5.03;2.03;;;;;;;;;;4976457;28;20026;-84
2021/01/27 14:59:53;;;;;;;3.97;2.28;;;;;;;;;;4978616;28;20463;-83
2021/01/27 15:02:20;;;;;;;4.82;1.90;;;;;;;;;;4976469;28;20034;-83
2021/01/27 15:04:49;;;;;;;5.70;2.55;;;;;;;;;;4974511;28;20030;-83